This is the latest recevied weather packets stored in our database for station/object W4KAB. If no packets are shown the sender has not sent any weather packets the latest 10 day(s).
| Time | Temp. | Humidity | Pressure | Rain* | Wind** | Luminosity | Snow |
|---|---|---|---|---|---|---|---|
| 1777915554 | 24.44° C | 42% | 1017.2 hPa | 0 mm | - | 727 W/m² | - |
| 1777914340 | 23.33° C | 43% | 1017.3 hPa | 0 mm | - | 695 W/m² | - |
| 1777909185 | 21.11° C | 42% | 1018.4 hPa | 0 mm | - | 705 W/m² | - |
| 1777908883 | 20.56° C | 45% | 1018.6 hPa | 0 mm | - | 751 W/m² | - |
| 1777908580 | 20° C | 44% | 1019 hPa | 0 mm | - | 698 W/m² | - |
| 1777908277 | 20.56° C | 44% | 1018.8 hPa | 0 mm | - | 679 W/m² | - |
| 1777907973 | 19.44° C | 45% | 1018.9 hPa | 0 mm | - | 657 W/m² | - |
| 1777907364 | 19.44° C | 44% | 1019.1 hPa | 0 mm | - | 389 W/m² | - |
| 1777907060 | 19.44° C | 44% | 1019.1 hPa | 0 mm | - | 665 W/m² | - |
| 1777906758 | 18.89° C | 44% | 1019 hPa | 0 mm | - | 101 W/m² | - |
| 1777906455 | 18.33° C | 44% | 1018.9 hPa | 0 mm | - | 64 W/m² | - |
| 1777906152 | 18.33° C | 45% | 1019 hPa | 0 mm | - | 65 W/m² | - |
| 1777905545 | 17.78° C | 49% | 1019 hPa | 0 mm | - | 43 W/m² | - |
| 1777905242 | 17.78° C | 47% | 1019.1 hPa | 0 mm | - | 41 W/m² | - |
| 1777904939 | 17.78° C | 49% | 1018.9 hPa | 0 mm | - | 41 W/m² | - |
| 1777904636 | 17.22° C | 50% | 1018.9 hPa | 0 mm | - | 37 W/m² | - |
| 1777904030 | 16.67° C | 49% | 1018.6 hPa | 0 mm | - | 41 W/m² | - |
| 1777903727 | 16.67° C | 51% | 1018.6 hPa | 0 mm | - | 34 W/m² | - |
| 1777903423 | 16.67° C | 52% | 1018.7 hPa | 0 mm | - | 51 W/m² | - |
| 1777903119 | 16.11° C | 53% | 1018.7 hPa | 0 mm | - | 32 W/m² | - |
| 1777902514 | 15° C | 59% | 1018.6 hPa | 0 mm | - | 45 W/m² | - |
| 1777901908 | 12.78° C | 70% | 1018.6 hPa | 0 mm | - | 29 W/m² | - |
| 1777901606 | 12.22° C | 75% | 1018.8 hPa | 0 mm | - | 30 W/m² | - |
| 1777901303 | 12.22° C | 75% | 1018.7 hPa | 0 mm | - | 34 W/m² | - |
| 1777901000 | 11.11° C | 78% | 1018.9 hPa | 0 mm | - | 26 W/m² | - |
* Rain latest hour (hover to see other rain measurements)
** Current wind speed in m/s (hover to see current wind gust speed)